createdAt,value
2022-09-09T00:00:36.356Z,1.50
2022-09-09T00:04:39.919Z,1.47
2022-09-09T00:08:44.755Z,1.50
2022-09-09T00:13:01.914Z,1.17
2022-09-09T00:17:06.674Z,1.10
2022-09-09T00:21:11.495Z,1.60
2022-09-09T00:25:17.379Z,1.97
2022-09-09T00:29:24.859Z,1.10
2022-09-09T00:33:27.441Z,2.17
2022-09-09T00:37:31.587Z,1.27
2022-09-09T00:41:54.977Z,1.30
2022-09-09T00:46:02.987Z,1.10
2022-09-09T00:50:19.592Z,1.63
2022-09-09T00:54:33.219Z,1.10
2022-09-09T00:58:34.401Z,1.40
2022-09-09T01:02:54.728Z,1.43
2022-09-09T01:07:02.447Z,1.43
2022-09-09T01:11:04.555Z,1.73
2022-09-09T01:15:28.247Z,1.50
2022-09-09T01:19:45.621Z,1.20
2022-09-09T01:23:50.496Z,2.40
2022-09-09T01:27:54.007Z,1.60
2022-09-09T01:31:58.479Z,1.13
2022-09-09T01:36:03.192Z,1.57
2022-09-09T01:40:05.315Z,2.00
2022-09-09T01:44:08.911Z,1.80
2022-09-09T01:48:09.875Z,1.70
2022-09-09T01:52:10.851Z,1.87
2022-09-09T01:56:24.862Z,2.03
2022-09-09T02:00:26.542Z,1.87
2022-09-09T02:04:43.518Z,1.80
2022-09-09T02:08:54.881Z,1.73
2022-09-09T02:12:59.620Z,1.53
2022-09-09T02:17:04.676Z,1.73
2022-09-09T02:21:07.013Z,1.50
2022-09-09T02:25:10.921Z,1.97
2022-09-09T02:29:18.660Z,2.33
2022-09-09T02:33:19.962Z,1.87
2022-09-09T02:37:25.478Z,2.50
2022-09-09T02:41:30.196Z,1.77
2022-09-09T02:45:42.434Z,2.30
2022-09-09T02:49:52.940Z,2.17
2022-09-09T02:54:14.454Z,1.87
2022-09-09T02:58:18.592Z,2.03
2022-09-09T03:02:19.985Z,2.23
2022-09-09T03:06:20.943Z,2.10
2022-09-09T03:10:21.818Z,1.77
2022-09-09T03:14:25.498Z,2.13
2022-09-09T03:18:27.343Z,2.30
2022-09-09T03:22:28.230Z,2.30
2022-09-09T03:26:32.110Z,2.20
2022-09-09T03:30:32.952Z,2.43
2022-09-09T03:34:33.825Z,2.20
2022-09-09T03:38:35.270Z,2.60
2022-09-09T03:42:37.342Z,4.50
2022-09-09T03:46:38.498Z,2.33
2022-09-09T03:50:39.512Z,2.73
2022-09-09T03:54:42.385Z,2.90
2022-09-09T03:58:43.451Z,2.60
2022-09-09T04:02:44.439Z,2.37
2022-09-09T04:06:45.490Z,1.90
2022-09-09T04:10:48.148Z,2.20
2022-09-09T04:14:49.563Z,2.93
2022-09-09T04:18:50.540Z,2.70
2022-09-09T04:22:51.587Z,3.23
2022-09-09T04:26:52.914Z,3.20
2022-09-09T04:30:53.885Z,3.43
2022-09-09T04:34:54.785Z,4.00
2022-09-09T04:38:55.851Z,3.37
2022-09-09T04:43:05.096Z,3.20
2022-09-09T04:47:06.449Z,3.27
2022-09-09T04:51:11.097Z,3.77
2022-09-09T04:55:13.376Z,3.70
2022-09-09T04:59:14.432Z,3.90
2022-09-09T05:03:15.476Z,3.00
2022-09-09T05:07:16.465Z,3.33
2022-09-09T05:11:24.637Z,3.20
2022-09-09T05:15:25.754Z,3.60
2022-09-09T05:19:26.763Z,3.43
2022-09-09T05:23:28.352Z,3.50
2022-09-09T05:27:31.333Z,4.30
2022-09-09T05:31:34.245Z,3.40
2022-09-09T05:35:35.382Z,4.00
2022-09-09T05:39:39.551Z,3.77
2022-09-09T05:43:40.567Z,3.00
2022-09-09T05:47:46.710Z,3.03
2022-09-09T05:51:48.387Z,2.87
2022-09-09T05:55:49.558Z,2.97
2022-09-09T05:59:52.866Z,2.93
2022-09-09T06:03:54.047Z,3.27
2022-09-09T06:07:55.611Z,4.00
2022-09-09T06:11:57.993Z,3.73
2022-09-09T06:16:00.220Z,3.73
2022-09-09T06:20:01.396Z,3.93
2022-09-09T06:24:03.621Z,3.77
2022-09-09T06:28:04.726Z,3.70
2022-09-09T06:32:05.920Z,3.70
2022-09-09T06:36:15.501Z,3.77
2022-09-09T06:40:17.754Z,2.93
2022-09-09T06:44:19.425Z,3.20
2022-09-09T06:48:20.645Z,3.07
2022-09-09T06:52:21.613Z,2.63
2022-09-09T06:56:29.393Z,2.53
2022-09-09T07:00:33.014Z,2.50
2022-09-09T07:04:34.101Z,3.20
2022-09-09T07:08:37.142Z,3.20
2022-09-09T07:12:38.249Z,2.67
2022-09-09T07:16:39.894Z,2.40
2022-09-09T07:20:41.791Z,3.13
2022-09-09T07:24:44.647Z,3.87
2022-09-09T07:28:46.240Z,3.97
2022-09-09T07:32:47.254Z,3.53
2022-09-09T07:36:49.120Z,3.70
2022-09-09T07:40:50.089Z,4.07
2022-09-09T07:44:52.959Z,3.90
2022-09-09T07:48:56.343Z,4.37
2022-09-09T07:52:57.719Z,4.90
2022-09-09T07:57:00.303Z,3.63
2022-09-09T08:01:11.821Z,3.53
2022-09-09T08:05:13.328Z,3.80
2022-09-09T08:09:17.695Z,4.07
2022-09-09T08:13:19.033Z,3.93
2022-09-09T08:17:20.171Z,3.63
2022-09-09T08:21:28.708Z,5.53
2022-09-09T08:25:29.630Z,3.47
2022-09-09T08:29:32.493Z,2.73
2022-09-09T08:33:33.872Z,3.33
2022-09-09T08:37:34.831Z,2.67
2022-09-09T08:42:09.693Z,3.03
2022-09-09T08:46:14.544Z,3.27
2022-09-09T08:50:32.863Z,2.90
2022-09-09T08:54:51.637Z,3.07
2022-09-09T08:58:47.054Z,3.60
2022-09-09T09:03:01.710Z,3.43
2022-09-09T09:07:18.738Z,3.50
2022-09-09T09:11:19.691Z,2.60
2022-09-09T09:15:29.463Z,3.00
2022-09-09T09:19:34.011Z,3.07
2022-09-09T09:23:38.945Z,2.67
2022-09-09T09:28:01.650Z,2.50
2022-09-09T09:32:04.095Z,3.33
2022-09-09T09:36:07.362Z,3.47
2022-09-09T09:40:10.871Z,3.43
2022-09-09T09:44:27.929Z,3.00
2022-09-09T09:48:28.879Z,3.10
2022-09-09T09:52:36.357Z,2.47
2022-09-09T09:56:38.139Z,3.80
2022-09-09T10:00:43.407Z,2.83
2022-09-09T10:04:48.467Z,2.57
2022-09-09T10:08:49.440Z,2.30
2022-09-09T10:13:06.004Z,2.27
2022-09-09T10:17:14.372Z,2.50
2022-09-09T10:21:27.999Z,2.53
2022-09-09T10:25:35.622Z,2.80
2022-09-09T10:29:49.665Z,1.77
2022-09-09T10:34:03.676Z,2.67
2022-09-09T10:38:11.497Z,2.90
2022-09-09T10:42:17.169Z,1.60
2022-09-09T10:46:23.120Z,1.60
2022-09-09T10:51:07.020Z,1.30
2022-09-09T10:55:20.766Z,1.50
2022-09-09T10:59:29.593Z,1.30
2022-09-09T11:03:33.954Z,2.27
2022-09-09T11:07:38.966Z,1.40
2022-09-09T11:11:43.863Z,1.10
2022-09-09T11:15:51.791Z,1.40
2022-09-09T11:19:54.350Z,1.73
2022-09-09T11:24:01.910Z,1.57
2022-09-09T11:28:07.055Z,1.77
2022-09-09T11:32:31.348Z,1.13
2022-09-09T11:36:53.412Z,1.40
2022-09-09T11:41:04.426Z,1.50
2022-09-09T11:45:19.637Z,1.00
2022-09-09T11:49:27.501Z,1.87
2022-09-09T11:53:28.972Z,1.53
2022-09-09T11:57:36.198Z,1.47
2022-09-09T12:01:40.213Z,1.63
2022-09-09T12:05:45.340Z,1.00
2022-09-09T12:10:08.625Z,1.10
2022-09-09T12:14:25.621Z,1.23
2022-09-09T12:18:37.153Z,1.67
2022-09-09T12:23:02.574Z,1.30
2022-09-09T12:27:10.621Z,1.20
2022-09-09T12:31:35.237Z,1.30
2022-09-09T12:35:39.211Z,1.10
2022-09-09T12:39:47.237Z,1.60
2022-09-09T12:43:50.240Z,1.63
2022-09-09T12:48:12.270Z,1.70
2022-09-09T12:52:23.391Z,1.70
2022-09-09T12:56:34.380Z,1.50
2022-09-09T13:00:35.425Z,1.30
2022-09-09T13:04:36.541Z,1.70
2022-09-09T13:08:39.244Z,1.40
2022-09-09T13:12:42.806Z,1.27
2022-09-09T13:16:46.749Z,1.90
2022-09-09T13:20:49.591Z,1.20
2022-09-09T13:24:54.284Z,2.03
2022-09-09T13:28:57.894Z,1.30
2022-09-09T13:33:18.282Z,0.93
2022-09-09T13:37:27.952Z,2.20
2022-09-09T13:41:39.292Z,1.50
2022-09-09T13:45:40.321Z,0.63
2022-09-09T13:49:41.561Z,0.87
2022-09-09T13:53:43.021Z,1.07
2022-09-09T13:58:05.630Z,0.73
2022-09-09T14:02:07.894Z,0.60
2022-09-09T14:06:10.821Z,0.60
2022-09-09T14:10:12.576Z,1.10
2022-09-09T14:14:14.061Z,0.83
2022-09-09T14:18:15.137Z,1.20
2022-09-09T14:22:16.071Z,1.10
2022-09-09T14:26:19.096Z,1.17
2022-09-09T14:30:20.298Z,1.40
2022-09-09T14:34:21.357Z,1.00
2022-09-09T14:38:22.490Z,1.20
2022-09-09T14:42:23.840Z,1.20
2022-09-09T14:46:25.776Z,1.30
2022-09-09T14:50:26.901Z,1.13
2022-09-09T14:54:28.867Z,0.90
2022-09-09T14:58:32.507Z,1.53
2022-09-09T15:02:34.385Z,1.10
2022-09-09T15:06:39.599Z,1.30
2022-09-09T15:10:40.548Z,2.10
2022-09-09T15:14:42.057Z,1.10
2022-09-09T15:18:45.301Z,1.20
2022-09-09T15:22:46.676Z,0.70
2022-09-09T15:26:47.729Z,1.10
2022-09-09T15:30:55.227Z,1.13
2022-09-09T15:34:56.368Z,0.87
2022-09-09T15:38:57.903Z,1.30
2022-09-09T15:42:59.442Z,1.00
2022-09-09T15:47:00.431Z,1.33
2022-09-09T15:51:19.493Z,1.63
2022-09-09T15:55:10.968Z,1.13
2022-09-09T15:59:11.995Z,1.00
2022-09-09T16:03:13.352Z,0.77
2022-09-09T16:07:14.368Z,1.40
2022-09-09T16:11:20.086Z,1.43
2022-09-09T16:15:22.991Z,1.27
2022-09-09T16:19:23.931Z,1.40
2022-09-09T16:23:25.151Z,1.30
2022-09-09T16:27:26.435Z,1.10
2022-09-09T16:31:29.522Z,1.20
2022-09-09T16:35:30.731Z,1.67
2022-09-09T16:39:32.105Z,3.30
2022-09-09T16:43:34.543Z,2.10
2022-09-09T16:47:36.403Z,1.87
2022-09-09T16:51:41.099Z,1.60
2022-09-09T16:55:42.923Z,3.07
2022-09-09T16:59:44.226Z,1.77
2022-09-09T17:03:45.442Z,1.60
2022-09-09T17:07:46.470Z,1.50
2022-09-09T17:11:50.442Z,1.73
2022-09-09T17:15:52.093Z,1.40
2022-09-09T17:19:53.520Z,1.47
2022-09-09T17:23:55.651Z,1.00
2022-09-09T17:27:57.869Z,1.70
2022-09-09T17:31:58.926Z,2.00
2022-09-09T17:36:02.027Z,1.90
2022-09-09T17:40:03.560Z,1.43
2022-09-09T17:48:10.917Z,1.80
2022-09-09T17:52:12.241Z,1.17
2022-09-09T17:56:16.418Z,1.50
2022-09-09T18:00:17.796Z,1.50
2022-09-09T18:04:20.326Z,1.20
2022-09-09T18:08:21.299Z,1.33
2022-09-09T18:12:22.429Z,1.37
2022-09-09T18:16:25.627Z,1.27
2022-09-09T18:20:26.690Z,1.40
2022-09-09T18:24:27.982Z,1.23
2022-09-09T18:28:29.182Z,1.30
2022-09-09T18:32:30.267Z,1.37
2022-09-09T18:36:34.770Z,1.23
2022-09-09T18:40:36.991Z,1.92
2022-09-09T18:44:39.352Z,1.63
2022-09-09T18:48:40.415Z,1.60
2022-09-09T18:52:41.791Z,1.00
2022-09-09T18:56:44.397Z,1.95
2022-09-09T19:00:46.197Z,1.12
2022-09-09T19:04:49.461Z,0.70
2022-09-09T19:08:55.226Z,0.90
2022-09-09T19:12:54.987Z,0.67
2022-09-09T19:16:56.361Z,0.87
2022-09-09T19:20:59.945Z,0.87
2022-09-09T19:25:02.978Z,0.70
2022-09-09T19:29:03.960Z,1.23
2022-09-09T19:33:04.927Z,1.00
2022-09-09T19:37:06.426Z,0.80
2022-09-09T19:41:09.888Z,1.23
2022-09-09T19:45:11.073Z,1.20
2022-09-09T19:49:15.634Z,1.10
2022-09-09T19:53:17.365Z,1.50
2022-09-09T19:57:19.874Z,1.00
2022-09-09T20:01:24.317Z,0.80
2022-09-09T20:05:25.621Z,1.17
2022-09-09T20:09:28.312Z,1.20
2022-09-09T20:13:30.795Z,0.80
2022-09-09T20:17:31.865Z,0.67
2022-09-09T20:21:37.700Z,0.90
2022-09-09T20:25:39.009Z,0.60
2022-09-09T20:29:40.370Z,0.70
2022-09-09T20:33:42.997Z,0.73
2022-09-09T20:37:45.975Z,0.90
2022-09-09T20:41:47.954Z,0.50
2022-09-09T20:45:49.424Z,0.70
2022-09-09T20:49:50.554Z,0.80
2022-09-09T20:54:04.256Z,0.97
2022-09-09T20:58:05.979Z,1.00
2022-09-09T21:02:07.555Z,1.30
2022-09-09T21:06:08.929Z,1.07
2022-09-09T21:10:12.810Z,1.20
2022-09-09T21:14:14.639Z,1.00
2022-09-09T21:18:16.856Z,1.07
2022-09-09T21:22:18.163Z,1.13
2022-09-09T21:26:19.908Z,1.10
2022-09-09T21:30:25.930Z,1.10
2022-09-09T21:34:23.756Z,1.60
2022-09-09T21:38:24.723Z,1.40
2022-09-09T21:42:26.067Z,2.30
2022-09-09T21:46:27.505Z,1.50
2022-09-09T21:50:28.776Z,1.97
2022-09-09T21:54:31.121Z,1.80
2022-09-09T21:58:34.063Z,2.00
2022-09-09T22:02:36.556Z,1.33
2022-09-09T22:06:37.635Z,1.90
2022-09-09T22:10:41.644Z,2.00
2022-09-09T22:14:42.587Z,1.93
2022-09-09T22:18:43.621Z,1.87
2022-09-09T22:22:44.536Z,2.03
2022-09-09T22:26:46.592Z,1.60
2022-09-09T22:30:47.968Z,2.30
2022-09-09T22:34:50.431Z,1.83
2022-09-09T22:38:51.920Z,1.65
2022-09-09T22:42:53.226Z,2.30
2022-09-09T22:46:55.123Z,1.50
2022-09-09T22:51:02.799Z,2.43
2022-09-09T22:55:04.420Z,2.00
2022-09-09T22:59:05.767Z,2.43
2022-09-09T23:03:07.294Z,2.30
2022-09-09T23:07:08.623Z,1.70
2022-09-09T23:11:11.385Z,2.77
2022-09-09T23:15:12.418Z,2.00
2022-09-09T23:19:16.096Z,2.12
2022-09-09T23:23:17.031Z,2.35
2022-09-09T23:27:18.263Z,2.03
2022-09-09T23:31:21.950Z,2.33
2022-09-09T23:35:22.842Z,2.37
2022-09-09T23:39:24.089Z,1.90
2022-09-09T23:43:26.540Z,1.97
2022-09-09T23:47:29.089Z,1.72
2022-09-09T23:51:31.427Z,1.67
2022-09-09T23:55:33.280Z,1.90
2022-09-09T23:59:34.728Z,2.00
